sensor_id;sensor_type;location;lat;lon;timestamp;P1;durP1;ratioP1;P2;durP2;ratioP2
27999;SDS011;15328;50.860;10.562;2023-11-21T00:01:21;1.33;;;0.68;;
27999;SDS011;15328;50.860;10.562;2023-11-21T00:06:21;1.10;;;0.65;;
27999;SDS011;15328;50.860;10.562;2023-11-21T00:11:22;1.58;;;0.60;;
27999;SDS011;15328;50.860;10.562;2023-11-21T00:16:23;1.60;;;0.50;;
27999;SDS011;15328;50.860;10.562;2023-11-21T00:21:25;1.60;;;0.70;;
27999;SDS011;15328;50.860;10.562;2023-11-21T00:26:25;1.02;;;0.57;;
27999;SDS011;15328;50.860;10.562;2023-11-21T00:31:26;1.27;;;0.47;;
27999;SDS011;15328;50.860;10.562;2023-11-21T00:36:26;1.10;;;0.70;;
27999;SDS011;15328;50.860;10.562;2023-11-21T00:41:27;1.67;;;0.70;;
27999;SDS011;15328;50.860;10.562;2023-11-21T00:46:28;1.80;;;0.65;;
27999;SDS011;15328;50.860;10.562;2023-11-21T00:51:29;1.60;;;0.65;;
27999;SDS011;15328;50.860;10.562;2023-11-21T00:56:30;1.70;;;0.50;;
27999;SDS011;15328;50.860;10.562;2023-11-21T01:01:30;1.20;;;0.50;;
27999;SDS011;15328;50.860;10.562;2023-11-21T01:06:31;1.30;;;0.40;;
27999;SDS011;15328;50.860;10.562;2023-11-21T01:11:31;1.83;;;0.60;;
27999;SDS011;15328;50.860;10.562;2023-11-21T01:16:32;0.95;;;0.55;;
27999;SDS011;15328;50.860;10.562;2023-11-21T01:21:33;2.22;;;0.90;;
27999;SDS011;15328;50.860;10.562;2023-11-21T01:26:33;1.15;;;0.50;;
27999;SDS011;15328;50.860;10.562;2023-11-21T01:31:34;0.90;;;0.55;;
27999;SDS011;15328;50.860;10.562;2023-11-21T01:36:34;0.90;;;0.50;;
27999;SDS011;15328;50.860;10.562;2023-11-21T01:41:35;1.23;;;0.50;;
27999;SDS011;15328;50.860;10.562;2023-11-21T01:46:35;0.70;;;0.33;;
27999;SDS011;15328;50.860;10.562;2023-11-21T01:51:37;1.63;;;0.60;;
27999;SDS011;15328;50.860;10.562;2023-11-21T01:56:38;1.13;;;0.55;;
27999;SDS011;15328;50.860;10.562;2023-11-21T02:01:39;1.45;;;0.70;;
27999;SDS011;15328;50.860;10.562;2023-11-21T02:06:41;1.77;;;0.60;;
27999;SDS011;15328;50.860;10.562;2023-11-21T02:11:41;1.95;;;0.60;;
27999;SDS011;15328;50.860;10.562;2023-11-21T02:16:42;1.48;;;0.63;;
27999;SDS011;15328;50.860;10.562;2023-11-21T02:21:45;1.92;;;0.70;;
27999;SDS011;15328;50.860;10.562;2023-11-21T02:26:48;1.17;;;0.60;;
27999;SDS011;15328;50.860;10.562;2023-11-21T02:31:51;1.95;;;0.70;;
27999;SDS011;15328;50.860;10.562;2023-11-21T02:36:54;3.28;;;0.65;;
27999;SDS011;15328;50.860;10.562;2023-11-21T02:41:55;2.25;;;0.57;;
27999;SDS011;15328;50.860;10.562;2023-11-21T02:46:55;2.27;;;0.80;;
27999;SDS011;15328;50.860;10.562;2023-11-21T02:51:57;1.23;;;0.55;;
27999;SDS011;15328;50.860;10.562;2023-11-21T02:56:58;2.53;;;0.50;;
27999;SDS011;15328;50.860;10.562;2023-11-21T03:01:58;1.38;;;0.70;;
27999;SDS011;15328;50.860;10.562;2023-11-21T03:06:59;1.17;;;0.53;;
27999;SDS011;15328;50.860;10.562;2023-11-21T03:11:59;0.53;;;0.30;;
27999;SDS011;15328;50.860;10.562;2023-11-21T03:16:59;0.80;;;0.40;;
27999;SDS011;15328;50.860;10.562;2023-11-21T03:22:00;1.35;;;0.70;;
27999;SDS011;15328;50.860;10.562;2023-11-21T03:27:00;2.10;;;0.53;;
27999;SDS011;15328;50.860;10.562;2023-11-21T03:32:00;1.75;;;0.70;;
27999;SDS011;15328;50.860;10.562;2023-11-21T03:37:02;1.13;;;0.70;;
27999;SDS011;15328;50.860;10.562;2023-11-21T03:42:02;0.77;;;0.60;;
27999;SDS011;15328;50.860;10.562;2023-11-21T03:47:03;1.33;;;0.50;;
27999;SDS011;15328;50.860;10.562;2023-11-21T03:52:03;1.05;;;0.57;;
27999;SDS011;15328;50.860;10.562;2023-11-21T03:57:04;1.85;;;0.80;;
27999;SDS011;15328;50.860;10.562;2023-11-21T04:02:04;1.40;;;0.50;;
27999;SDS011;15328;50.860;10.562;2023-11-21T04:07:05;0.75;;;0.40;;
27999;SDS011;15328;50.860;10.562;2023-11-21T04:12:05;0.63;;;0.47;;
27999;SDS011;15328;50.860;10.562;2023-11-21T04:17:06;1.63;;;0.40;;
27999;SDS011;15328;50.860;10.562;2023-11-21T04:22:07;1.00;;;0.60;;
27999;SDS011;15328;50.860;10.562;2023-11-21T04:27:07;0.95;;;0.60;;
27999;SDS011;15328;50.860;10.562;2023-11-21T04:32:07;2.05;;;0.60;;
27999;SDS011;15328;50.860;10.562;2023-11-21T04:37:08;2.07;;;0.67;;
27999;SDS011;15328;50.860;10.562;2023-11-21T04:42:10;0.95;;;0.57;;
27999;SDS011;15328;50.860;10.562;2023-11-21T04:47:11;0.98;;;0.47;;
27999;SDS011;15328;50.860;10.562;2023-11-21T04:52:11;1.17;;;0.40;;
27999;SDS011;15328;50.860;10.562;2023-11-21T04:57:11;2.10;;;0.60;;
27999;SDS011;15328;50.860;10.562;2023-11-21T05:02:12;1.33;;;0.67;;
27999;SDS011;15328;50.860;10.562;2023-11-21T05:07:12;1.50;;;0.70;;
27999;SDS011;15328;50.860;10.562;2023-11-21T05:12:13;3.30;;;0.80;;
27999;SDS011;15328;50.860;10.562;2023-11-21T05:17:14;1.67;;;0.90;;
27999;SDS011;15328;50.860;10.562;2023-11-21T05:22:15;3.00;;;0.90;;
27999;SDS011;15328;50.860;10.562;2023-11-21T05:27:15;1.65;;;0.80;;
27999;SDS011;15328;50.860;10.562;2023-11-21T05:32:16;2.17;;;0.90;;
27999;SDS011;15328;50.860;10.562;2023-11-21T05:37:17;2.15;;;0.90;;
27999;SDS011;15328;50.860;10.562;2023-11-21T05:42:18;2.03;;;0.93;;
27999;SDS011;15328;50.860;10.562;2023-11-21T05:47:18;2.00;;;1.00;;
27999;SDS011;15328;50.860;10.562;2023-11-21T05:52:21;2.05;;;1.00;;
27999;SDS011;15328;50.860;10.562;2023-11-21T05:57:22;1.97;;;1.20;;
27999;SDS011;15328;50.860;10.562;2023-11-21T06:02:22;2.58;;;1.60;;
27999;SDS011;15328;50.860;10.562;2023-11-21T06:07:22;2.30;;;1.50;;
27999;SDS011;15328;50.860;10.562;2023-11-21T06:12:23;3.53;;;1.65;;
27999;SDS011;15328;50.860;10.562;2023-11-21T06:17:23;4.30;;;2.20;;
27999;SDS011;15328;50.860;10.562;2023-11-21T06:22:25;4.00;;;2.15;;
27999;SDS011;15328;50.860;10.562;2023-11-21T06:27:25;3.72;;;1.90;;
27999;SDS011;15328;50.860;10.562;2023-11-21T06:32:25;4.90;;;2.13;;
27999;SDS011;15328;50.860;10.562;2023-11-21T06:37:26;5.50;;;2.13;;
27999;SDS011;15328;50.860;10.562;2023-11-21T06:42:27;2.90;;;1.50;;
27999;SDS011;15328;50.860;10.562;2023-11-21T06:47:29;3.25;;;2.00;;
27999;SDS011;15328;50.860;10.562;2023-11-21T06:52:30;5.70;;;2.28;;
27999;SDS011;15328;50.860;10.562;2023-11-21T06:57:31;7.15;;;3.60;;
27999;SDS011;15328;50.860;10.562;2023-11-21T07:02:31;8.90;;;3.72;;
27999;SDS011;15328;50.860;10.562;2023-11-21T07:07:31;5.80;;;2.97;;
27999;SDS011;15328;50.860;10.562;2023-11-21T07:12:34;5.70;;;2.72;;
27999;SDS011;15328;50.860;10.562;2023-11-21T07:17:35;3.53;;;2.10;;
27999;SDS011;15328;50.860;10.562;2023-11-21T07:22:36;3.97;;;2.10;;
27999;SDS011;15328;50.860;10.562;2023-11-21T07:27:36;4.13;;;2.30;;
27999;SDS011;15328;50.860;10.562;2023-11-21T07:32:37;7.40;;;2.50;;
27999;SDS011;15328;50.860;10.562;2023-11-21T07:37:39;4.30;;;2.35;;
27999;SDS011;15328;50.860;10.562;2023-11-21T07:42:40;3.65;;;2.05;;
27999;SDS011;15328;50.860;10.562;2023-11-21T07:47:42;5.97;;;2.50;;
27999;SDS011;15328;50.860;10.562;2023-11-21T07:52:42;6.57;;;2.80;;
27999;SDS011;15328;50.860;10.562;2023-11-21T07:57:43;4.83;;;3.20;;
27999;SDS011;15328;50.860;10.562;2023-11-21T08:02:43;9.10;;;5.40;;
27999;SDS011;15328;50.860;10.562;2023-11-21T08:07:45;9.77;;;6.03;;
27999;SDS011;15328;50.860;10.562;2023-11-21T08:12:46;7.07;;;3.90;;
27999;SDS011;15328;50.860;10.562;2023-11-21T08:17:48;4.82;;;3.20;;
27999;SDS011;15328;50.860;10.562;2023-11-21T08:22:48;5.45;;;2.83;;
27999;SDS011;15328;50.860;10.562;2023-11-21T08:27:49;4.93;;;3.38;;
27999;SDS011;15328;50.860;10.562;2023-11-21T08:32:49;6.13;;;4.05;;
27999;SDS011;15328;50.860;10.562;2023-11-21T08:37:52;4.68;;;3.45;;
27999;SDS011;15328;50.860;10.562;2023-11-21T08:42:55;6.03;;;3.50;;
27999;SDS011;15328;50.860;10.562;2023-11-21T08:47:58;8.25;;;4.20;;
27999;SDS011;15328;50.860;10.562;2023-11-21T08:52:59;10.75;;;4.93;;
27999;SDS011;15328;50.860;10.562;2023-11-21T08:57:59;7.28;;;4.32;;
27999;SDS011;15328;50.860;10.562;2023-11-21T09:03:01;8.95;;;4.30;;
27999;SDS011;15328;50.860;10.562;2023-11-21T09:08:03;8.75;;;4.30;;
27999;SDS011;15328;50.860;10.562;2023-11-21T09:13:03;9.97;;;4.23;;
27999;SDS011;15328;50.860;10.562;2023-11-21T09:18:04;8.70;;;4.70;;
27999;SDS011;15328;50.860;10.562;2023-11-21T09:23:05;9.00;;;4.43;;
27999;SDS011;15328;50.860;10.562;2023-11-21T09:28:05;7.77;;;4.57;;
27999;SDS011;15328;50.860;10.562;2023-11-21T09:33:08;9.75;;;5.07;;
27999;SDS011;15328;50.860;10.562;2023-11-21T09:38:10;11.15;;;5.60;;
27999;SDS011;15328;50.860;10.562;2023-11-21T09:43:17;9.05;;;4.80;;
27999;SDS011;15328;50.860;10.562;2023-11-21T09:48:18;8.18;;;4.70;;
27999;SDS011;15328;50.860;10.562;2023-11-21T09:53:20;8.02;;;4.55;;
27999;SDS011;15328;50.860;10.562;2023-11-21T09:58:23;6.03;;;4.15;;
27999;SDS011;15328;50.860;10.562;2023-11-21T10:03:24;9.50;;;4.38;;
27999;SDS011;15328;50.860;10.562;2023-11-21T10:08:25;7.67;;;3.97;;
27999;SDS011;15328;50.860;10.562;2023-11-21T10:13:28;10.55;;;4.50;;
27999;SDS011;15328;50.860;10.562;2023-11-21T10:18:31;7.70;;;3.97;;
27999;SDS011;15328;50.860;10.562;2023-11-21T10:23:34;9.98;;;4.93;;
27999;SDS011;15328;50.860;10.562;2023-11-21T10:28:37;10.88;;;4.47;;
27999;SDS011;15328;50.860;10.562;2023-11-21T10:33:39;7.15;;;4.13;;
27999;SDS011;15328;50.860;10.562;2023-11-21T10:38:42;7.45;;;4.40;;
27999;SDS011;15328;50.860;10.562;2023-11-21T10:43:43;12.25;;;5.00;;
27999;SDS011;15328;50.860;10.562;2023-11-21T10:48:44;7.93;;;4.28;;
27999;SDS011;15328;50.860;10.562;2023-11-21T10:53:45;7.90;;;4.13;;
27999;SDS011;15328;50.860;10.562;2023-11-21T10:58:45;7.78;;;4.47;;
27999;SDS011;15328;50.860;10.562;2023-11-21T11:03:46;7.25;;;4.75;;
27999;SDS011;15328;50.860;10.562;2023-11-21T11:08:47;10.68;;;5.47;;
27999;SDS011;15328;50.860;10.562;2023-11-21T11:13:49;7.10;;;4.70;;
27999;SDS011;15328;50.860;10.562;2023-11-21T11:18:50;9.05;;;4.70;;
27999;SDS011;15328;50.860;10.562;2023-11-21T11:23:56;6.40;;;4.53;;
27999;SDS011;15328;50.860;10.562;2023-11-21T11:34:44;8.57;;;5.47;;
27999;SDS011;15328;50.860;10.562;2023-11-21T11:39:50;8.45;;;5.60;;
27999;SDS011;15328;50.860;10.562;2023-11-21T11:44:51;12.38;;;6.10;;
27999;SDS011;15328;50.860;10.562;2023-11-21T11:55:14;9.65;;;5.68;;
27999;SDS011;15328;50.860;10.562;2023-11-21T12:05:32;10.15;;;5.53;;
27999;SDS011;15328;50.860;10.562;2023-11-21T12:10:38;11.30;;;6.32;;
27999;SDS011;15328;50.860;10.562;2023-11-21T12:15:42;8.63;;;5.53;;
27999;SDS011;15328;50.860;10.562;2023-11-21T12:20:43;11.85;;;6.40;;
27999;SDS011;15328;50.860;10.562;2023-11-21T12:25:47;11.95;;;6.63;;
27999;SDS011;15328;50.860;10.562;2023-11-21T12:30:47;8.73;;;5.53;;
27999;SDS011;15328;50.860;10.562;2023-11-21T12:35:47;13.18;;;6.85;;
27999;SDS011;15328;50.860;10.562;2023-11-21T12:40:48;13.85;;;7.32;;
27999;SDS011;15328;50.860;10.562;2023-11-21T12:45:49;9.13;;;6.17;;
27999;SDS011;15328;50.860;10.562;2023-11-21T12:50:49;10.18;;;6.18;;
27999;SDS011;15328;50.860;10.562;2023-11-21T12:55:55;9.38;;;6.30;;
27999;SDS011;15328;50.860;10.562;2023-11-21T13:00:57;10.00;;;5.65;;
27999;SDS011;15328;50.860;10.562;2023-11-21T13:05:59;9.55;;;5.30;;
27999;SDS011;15328;50.860;10.562;2023-11-21T13:11:01;8.38;;;5.60;;
27999;SDS011;15328;50.860;10.562;2023-11-21T13:16:02;10.00;;;4.97;;
27999;SDS011;15328;50.860;10.562;2023-11-21T13:21:08;6.82;;;4.15;;
27999;SDS011;15328;50.860;10.562;2023-11-21T13:26:12;6.10;;;4.00;;
27999;SDS011;15328;50.860;10.562;2023-11-21T13:31:14;5.38;;;4.00;;
27999;SDS011;15328;50.860;10.562;2023-11-21T13:36:22;5.82;;;3.90;;
27999;SDS011;15328;50.860;10.562;2023-11-21T13:41:24;6.78;;;3.90;;
27999;SDS011;15328;50.860;10.562;2023-11-21T13:46:30;4.60;;;3.03;;
27999;SDS011;15328;50.860;10.562;2023-11-21T13:51:36;4.18;;;3.00;;
27999;SDS011;15328;50.860;10.562;2023-11-21T13:56:49;4.68;;;2.92;;
27999;SDS011;15328;50.860;10.562;2023-11-21T14:01:50;4.55;;;2.70;;
27999;SDS011;15328;50.860;10.562;2023-11-21T14:07:11;3.75;;;2.30;;
27999;SDS011;15328;50.860;10.562;2023-11-21T14:12:41;2.97;;;2.20;;
27999;SDS011;15328;50.860;10.562;2023-11-21T14:17:42;2.35;;;1.70;;
27999;SDS011;15328;50.860;10.562;2023-11-21T14:22:43;1.83;;;1.47;;
27999;SDS011;15328;50.860;10.562;2023-11-21T14:27:43;2.65;;;1.63;;
27999;SDS011;15328;50.860;10.562;2023-11-21T14:32:43;2.27;;;1.20;;
27999;SDS011;15328;50.860;10.562;2023-11-21T14:37:44;1.10;;;0.80;;
27999;SDS011;15328;50.860;10.562;2023-11-21T14:42:46;1.88;;;0.90;;
27999;SDS011;15328;50.860;10.562;2023-11-21T14:47:47;1.98;;;1.30;;
27999;SDS011;15328;50.860;10.562;2023-11-21T14:53:06;3.50;;;2.00;;
27999;SDS011;15328;50.860;10.562;2023-11-21T14:58:06;2.70;;;1.70;;
27999;SDS011;15328;50.860;10.562;2023-11-21T15:03:12;2.60;;;1.80;;
27999;SDS011;15328;50.860;10.562;2023-11-21T15:08:41;4.13;;;2.50;;
27999;SDS011;15328;50.860;10.562;2023-11-21T15:13:43;4.25;;;2.88;;
27999;SDS011;15328;50.860;10.562;2023-11-21T15:18:43;4.90;;;3.10;;
27999;SDS011;15328;50.860;10.562;2023-11-21T15:23:44;6.80;;;4.45;;
27999;SDS011;15328;50.860;10.562;2023-11-21T15:28:44;7.93;;;5.38;;
27999;SDS011;15328;50.860;10.562;2023-11-21T15:33:45;8.77;;;5.93;;
27999;SDS011;15328;50.860;10.562;2023-11-21T15:38:45;13.60;;;8.10;;
27999;SDS011;15328;50.860;10.562;2023-11-21T15:43:45;13.40;;;8.80;;
27999;SDS011;15328;50.860;10.562;2023-11-21T15:48:49;15.18;;;8.55;;
27999;SDS011;15328;50.860;10.562;2023-11-21T15:53:54;14.40;;;8.90;;
27999;SDS011;15328;50.860;10.562;2023-11-21T15:58:54;13.82;;;8.90;;
27999;SDS011;15328;50.860;10.562;2023-11-21T16:03:55;15.27;;;9.17;;
27999;SDS011;15328;50.860;10.562;2023-11-21T16:08:55;14.57;;;9.23;;
27999;SDS011;15328;50.860;10.562;2023-11-21T16:13:58;16.38;;;10.75;;
27999;SDS011;15328;50.860;10.562;2023-11-21T16:18:58;15.43;;;9.05;;
27999;SDS011;15328;50.860;10.562;2023-11-21T16:23:58;14.23;;;9.27;;
27999;SDS011;15328;50.860;10.562;2023-11-21T16:28:59;14.73;;;8.80;;
27999;SDS011;15328;50.860;10.562;2023-11-21T16:33:59;14.43;;;9.93;;
27999;SDS011;15328;50.860;10.562;2023-11-21T16:39:00;13.13;;;8.73;;
27999;SDS011;15328;50.860;10.562;2023-11-21T16:44:00;13.75;;;8.80;;
27999;SDS011;15328;50.860;10.562;2023-11-21T16:49:01;14.70;;;8.85;;
27999;SDS011;15328;50.860;10.562;2023-11-21T16:54:02;12.17;;;8.80;;
27999;SDS011;15328;50.860;10.562;2023-11-21T16:59:02;13.15;;;8.98;;
27999;SDS011;15328;50.860;10.562;2023-11-21T17:04:03;14.10;;;9.13;;
27999;SDS011;15328;50.860;10.562;2023-11-21T17:09:05;13.27;;;8.65;;
27999;SDS011;15328;50.860;10.562;2023-11-21T17:14:09;14.73;;;9.00;;
27999;SDS011;15328;50.860;10.562;2023-11-21T17:19:10;13.45;;;8.50;;
27999;SDS011;15328;50.860;10.562;2023-11-21T17:24:10;13.15;;;8.07;;
27999;SDS011;15328;50.860;10.562;2023-11-21T17:29:11;9.88;;;7.40;;
27999;SDS011;15328;50.860;10.562;2023-11-21T17:34:11;11.37;;;7.37;;
27999;SDS011;15328;50.860;10.562;2023-11-21T17:39:12;10.90;;;7.45;;
27999;SDS011;15328;50.860;10.562;2023-11-21T17:44:13;10.48;;;7.38;;
27999;SDS011;15328;50.860;10.562;2023-11-21T17:49:13;9.82;;;7.28;;
27999;SDS011;15328;50.860;10.562;2023-11-21T17:54:13;9.20;;;6.40;;
27999;SDS011;15328;50.860;10.562;2023-11-21T17:59:14;9.15;;;5.88;;
27999;SDS011;15328;50.860;10.562;2023-11-21T18:04:16;7.38;;;5.00;;
27999;SDS011;15328;50.860;10.562;2023-11-21T18:09:16;7.68;;;5.28;;
27999;SDS011;15328;50.860;10.562;2023-11-21T18:14:17;8.10;;;5.13;;
27999;SDS011;15328;50.860;10.562;2023-11-21T18:19:20;8.07;;;5.40;;
27999;SDS011;15328;50.860;10.562;2023-11-21T18:24:20;8.15;;;5.57;;
27999;SDS011;15328;50.860;10.562;2023-11-21T18:29:21;9.23;;;6.35;;
27999;SDS011;15328;50.860;10.562;2023-11-21T18:34:21;9.77;;;6.67;;
27999;SDS011;15328;50.860;10.562;2023-11-21T18:39:22;8.68;;;6.60;;
27999;SDS011;15328;50.860;10.562;2023-11-21T18:44:22;9.18;;;6.25;;
27999;SDS011;15328;50.860;10.562;2023-11-21T18:49:22;8.10;;;5.40;;
27999;SDS011;15328;50.860;10.562;2023-11-21T18:54:23;7.05;;;5.03;;
27999;SDS011;15328;50.860;10.562;2023-11-21T18:59:23;7.97;;;5.47;;
27999;SDS011;15328;50.860;10.562;2023-11-21T19:04:23;7.40;;;5.40;;
27999;SDS011;15328;50.860;10.562;2023-11-21T19:09:24;9.32;;;5.47;;
27999;SDS011;15328;50.860;10.562;2023-11-21T19:14:25;8.57;;;5.80;;
27999;SDS011;15328;50.860;10.562;2023-11-21T19:19:25;7.53;;;5.35;;
27999;SDS011;15328;50.860;10.562;2023-11-21T19:24:26;8.13;;;5.82;;
27999;SDS011;15328;50.860;10.562;2023-11-21T19:29:26;7.82;;;5.43;;
27999;SDS011;15328;50.860;10.562;2023-11-21T19:34:26;8.95;;;5.70;;
27999;SDS011;15328;50.860;10.562;2023-11-21T19:39:29;7.35;;;5.35;;
27999;SDS011;15328;50.860;10.562;2023-11-21T19:44:30;7.95;;;5.72;;
27999;SDS011;15328;50.860;10.562;2023-11-21T19:49:30;8.93;;;5.70;;
27999;SDS011;15328;50.860;10.562;2023-11-21T19:54:33;8.48;;;5.53;;
27999;SDS011;15328;50.860;10.562;2023-11-21T19:59:34;7.68;;;5.20;;
27999;SDS011;15328;50.860;10.562;2023-11-21T20:04:37;8.82;;;5.60;;
27999;SDS011;15328;50.860;10.562;2023-11-21T20:09:39;8.43;;;5.00;;
27999;SDS011;15328;50.860;10.562;2023-11-21T20:14:39;7.93;;;5.68;;
27999;SDS011;15328;50.860;10.562;2023-11-21T20:19:42;8.15;;;4.88;;
27999;SDS011;15328;50.860;10.562;2023-11-21T20:24:43;10.30;;;5.55;;
27999;SDS011;15328;50.860;10.562;2023-11-21T20:29:44;7.40;;;5.03;;
27999;SDS011;15328;50.860;10.562;2023-11-21T20:34:44;8.40;;;5.35;;
27999;SDS011;15328;50.860;10.562;2023-11-21T20:39:46;8.27;;;5.03;;
27999;SDS011;15328;50.860;10.562;2023-11-21T20:44:48;6.68;;;4.68;;
27999;SDS011;15328;50.860;10.562;2023-11-21T20:49:49;7.43;;;4.97;;
27999;SDS011;15328;50.860;10.562;2023-11-21T20:54:51;7.68;;;4.60;;
27999;SDS011;15328;50.860;10.562;2023-11-21T20:59:52;7.38;;;4.53;;
27999;SDS011;15328;50.860;10.562;2023-11-21T21:04:52;6.07;;;4.28;;
27999;SDS011;15328;50.860;10.562;2023-11-21T21:09:52;6.37;;;4.50;;
27999;SDS011;15328;50.860;10.562;2023-11-21T21:14:53;8.03;;;4.53;;
27999;SDS011;15328;50.860;10.562;2023-11-21T21:19:56;7.25;;;4.70;;
27999;SDS011;15328;50.860;10.562;2023-11-21T21:24:56;6.60;;;4.28;;
27999;SDS011;15328;50.860;10.562;2023-11-21T21:29:56;6.53;;;4.35;;
27999;SDS011;15328;50.860;10.562;2023-11-21T21:34:57;7.60;;;4.40;;
27999;SDS011;15328;50.860;10.562;2023-11-21T21:39:57;6.30;;;4.18;;
27999;SDS011;15328;50.860;10.562;2023-11-21T21:44:58;6.45;;;4.00;;
27999;SDS011;15328;50.860;10.562;2023-11-21T21:49:59;6.47;;;3.90;;
27999;SDS011;15328;50.860;10.562;2023-11-21T21:54:59;7.53;;;4.45;;
27999;SDS011;15328;50.860;10.562;2023-11-21T22:00:00;6.95;;;4.35;;
27999;SDS011;15328;50.860;10.562;2023-11-21T22:05:03;6.25;;;4.45;;
27999;SDS011;15328;50.860;10.562;2023-11-21T22:10:03;6.70;;;4.38;;
27999;SDS011;15328;50.860;10.562;2023-11-21T22:15:04;7.25;;;4.35;;
27999;SDS011;15328;50.860;10.562;2023-11-21T22:20:05;7.75;;;4.65;;
27999;SDS011;15328;50.860;10.562;2023-11-21T22:25:06;6.18;;;4.35;;
27999;SDS011;15328;50.860;10.562;2023-11-21T22:30:07;6.45;;;4.05;;
27999;SDS011;15328;50.860;10.562;2023-11-21T22:35:09;7.13;;;4.35;;
27999;SDS011;15328;50.860;10.562;2023-11-21T22:40:10;6.45;;;4.22;;
27999;SDS011;15328;50.860;10.562;2023-11-21T22:45:10;5.88;;;3.80;;
27999;SDS011;15328;50.860;10.562;2023-11-21T22:50:11;8.02;;;3.47;;
27999;SDS011;15328;50.860;10.562;2023-11-21T22:55:11;6.97;;;3.95;;
27999;SDS011;15328;50.860;10.562;2023-11-21T23:00:12;7.03;;;4.05;;
27999;SDS011;15328;50.860;10.562;2023-11-21T23:05:14;7.40;;;3.97;;
27999;SDS011;15328;50.860;10.562;2023-11-21T23:10:15;6.25;;;4.10;;
27999;SDS011;15328;50.860;10.562;2023-11-21T23:15:18;5.65;;;3.30;;
27999;SDS011;15328;50.860;10.562;2023-11-21T23:20:19;6.13;;;3.60;;
27999;SDS011;15328;50.860;10.562;2023-11-21T23:25:20;6.03;;;4.00;;
27999;SDS011;15328;50.860;10.562;2023-11-21T23:30:21;6.85;;;3.60;;
27999;SDS011;15328;50.860;10.562;2023-11-21T23:35:22;6.75;;;3.78;;
27999;SDS011;15328;50.860;10.562;2023-11-21T23:40:23;7.05;;;4.13;;
27999;SDS011;15328;50.860;10.562;2023-11-21T23:45:25;6.70;;;3.90;;
27999;SDS011;15328;50.860;10.562;2023-11-21T23:50:28;7.22;;;3.97;;
27999;SDS011;15328;50.860;10.562;2023-11-21T23:55:29;5.53;;;3.40;;
